De Sui — BSFU — position and weather

sailwx.info

Track history (hours):
 
Tides and Currents Weather Stations Pressure Air Temp Water Temp Dewpoint Dewpoint Depression Visibility Wind Speed Wind Dir Waves Ship Positions

De Sui

Last reported at 2014-Sep-17 23:23 UTC. Time now 2014-Sep-20 20:03 UTC.
Position N 23°03' E 113°21'.

Length 65 m; draft 5 m.

Type: Tug. MMSI: 413070000.

Date/timePositionNaut miles runAvg speedWind from/ knotsBaromVisibWave heightAir tempDewpointWater temp
2014-Sep-17 23:23N 23°03' E 113°21'0 0.0
2014-Sep-17 21:05N 23°03' E 113°21'0 0.0
2014-Sep-17 20:16N 23°03' E 113°21'0 0.0
2014-Sep-17 19:22N 23°03' E 113°21'0 0.0
2014-Sep-17 09:22N 23°03' E 113°21'0 0.0
2014-Sep-17 08:16N 23°03' E 113°21'0 0.0
2014-Sep-17 07:16N 23°03' E 113°21'0 0.0
2014-Sep-17 03:28N 23°03' E 113°21'0 0.0
2014-Sep-17 02:22N 23°03' E 113°21'0 0.0
2014-Sep-17 00:25N 23°03' E 113°21'0 0.0
2014-Sep-16 23:30N 23°03' E 113°21'0 0.1
2014-Sep-16 20:28N 23°03' E 113°20'0 0.0
2014-Sep-16 19:16N 23°03' E 113°20'0 0.0
2014-Sep-16 18:28N 23°03' E 113°20'0 0.0
2014-Sep-16 17:28N 23°03' E 113°20'0 0.0
2014-Sep-16 05:07N 23°03' E 113°20'2 3.0
2014-Sep-16 04:34N 23°02' E 113°22'7 6.5
2014-Sep-16 03:33N 23°04' E 113°29'8 7.8
2014-Sep-16 02:32N 22°57' E 113°32'5 1.4
2014-Sep-15 23:11N 22°52' E 113°33'0 0.0
2014-Sep-15 22:29N 22°52' E 113°33'0 0.0
2014-Sep-15 21:29N 22°52' E 113°33'0 0.0
2014-Sep-15 20:32N 22°52' E 113°33'0 0.0
2014-Sep-15 18:28N 22°52' E 113°33'0 0.0
2014-Sep-15 12:07N 22°52' E 113°33'43 9.2
2014-Sep-15 07:25N 22°13' E 113°50'  
2014-Sep-12 23:19N 22°01' E 113°48'3 4.5
2014-Sep-12 22:33N 22°01' E 113°45'4 4.0
2014-Sep-12 21:31N 21°59' E 113°41'26 3.6
2014-Sep-12 14:21N 21°50' E 113°15'3 4.3
2014-Sep-12 13:33N 21°53' E 113°12'7 7.2
2014-Sep-12 12:33N 21°58' E 113°07'5 0.6
2014-Sep-12 04:33N 22°03' E 113°05'5 4.9
2014-Sep-12 03:33N 21°58' E 113°07'5 5.1
2014-Sep-12 02:33N 21°54' E 113°11'3 2.6
2014-Sep-12 01:29N 21°52' E 113°12'35 2.3
2014-Sep-11 10:32N 22°02' E 113°48'0 0.1
2014-Sep-11 08:26N 22°01' E 113°48'0 0.0
2014-Sep-11 07:14N 22°01' E 113°48'0 0.0
2014-Sep-11 04:14N 22°01' E 113°48'0 0.0
2014-Sep-10 22:08N 22°01' E 113°48'0 0.0
2014-Sep-10 21:32N 22°01' E 113°48'0 0.0
2014-Sep-10 19:32N 22°01' E 113°48'0 0.0
2014-Sep-10 18:32N 22°01' E 113°48'0 0.1
2014-Sep-10 17:32N 22°01' E 113°48'0 0.1
2014-Sep-10 16:26N 22°01' E 113°48'0 0.0
2014-Sep-10 11:07N 22°01' E 113°48'0 0.0
2014-Sep-10 06:25N 22°01' E 113°48'0 0.0
2014-Sep-10 05:19N 22°01' E 113°48'0 0.0
2014-Sep-10 04:25N 22°01' E 113°48'0 0.0
2014-Sep-10 03:31N 22°01' E 113°48'4 3.7
2014-Sep-10 02:30N 22°05' E 113°49'4 3.1
2014-Sep-10 01:19N 22°09' E 113°48'0 0.0
2014-Sep-10 00:31N 22°09' E 113°48'0 0.0
2014-Sep-09 23:13N 22°09' E 113°48'0 0.0
2014-Sep-09 22:31N 22°09' E 113°48'0 0.0
2014-Sep-09 21:31N 22°09' E 113°48'0 0.0
2014-Sep-09 20:31N 22°09' E 113°48'0 0.0
2014-Sep-09 19:31N 22°09' E 113°48'0 0.0
2014-Sep-09 18:31N 22°09' E 113°48'0 0.0
2014-Sep-09 17:25N 22°09' E 113°48'2 2.6
2014-Sep-09 16:33N 22°11' E 113°47'9 8.6
2014-Sep-09 15:33N 22°19' E 113°48'  
Track history (hours):
 
Tides and Currents Weather Stations Pressure Air Temp Water Temp Dewpoint Dewpoint Depression Visibility Wind Speed Wind Dir Waves Ship Positions

De Sui

Last reported at 2014-Sep-17 23:23 UTC. Time now 2014-Sep-20 20:03 UTC.
Position N 23°03' E 113°21'.

Length 65 m; draft 5 m.

Type: Tug. MMSI: 413070000.

Date/timePositionNaut miles runAvg speedWind from/ knotsBaromVisibWave heightAir tempDewpointWater temp
2014-Sep-17 23:23N 23°03' E 113°21'0 0.0
2014-Sep-17 21:05N 23°03' E 113°21'0 0.0
2014-Sep-17 20:16N 23°03' E 113°21'0 0.0
2014-Sep-17 19:22N 23°03' E 113°21'0 0.0
2014-Sep-17 09:22N 23°03' E 113°21'0 0.0
2014-Sep-17 08:16N 23°03' E 113°21'0 0.0
2014-Sep-17 07:16N 23°03' E 113°21'0 0.0
2014-Sep-17 03:28N 23°03' E 113°21'0 0.0
2014-Sep-17 02:22N 23°03' E 113°21'0 0.0
2014-Sep-17 00:25N 23°03' E 113°21'0 0.0
2014-Sep-16 23:30N 23°03' E 113°21'0 0.1
2014-Sep-16 20:28N 23°03' E 113°20'0 0.0
2014-Sep-16 19:16N 23°03' E 113°20'0 0.0
2014-Sep-16 18:28N 23°03' E 113°20'0 0.0
2014-Sep-16 17:28N 23°03' E 113°20'0 0.0
2014-Sep-16 05:07N 23°03' E 113°20'2 3.0
2014-Sep-16 04:34N 23°02' E 113°22'7 6.5
2014-Sep-16 03:33N 23°04' E 113°29'8 7.8
2014-Sep-16 02:32N 22°57' E 113°32'5 1.4
2014-Sep-15 23:11N 22°52' E 113°33'0 0.0
2014-Sep-15 22:29N 22°52' E 113°33'0 0.0
2014-Sep-15 21:29N 22°52' E 113°33'0 0.0
2014-Sep-15 20:32N 22°52' E 113°33'0 0.0
2014-Sep-15 18:28N 22°52' E 113°33'0 0.0
2014-Sep-15 12:07N 22°52' E 113°33'43 9.2
2014-Sep-15 07:25N 22°13' E 113°50'  
2014-Sep-12 23:19N 22°01' E 113°48'3 4.5
2014-Sep-12 22:33N 22°01' E 113°45'4 4.0
2014-Sep-12 21:31N 21°59' E 113°41'26 3.6
2014-Sep-12 14:21N 21°50' E 113°15'3 4.3
2014-Sep-12 13:33N 21°53' E 113°12'7 7.2
2014-Sep-12 12:33N 21°58' E 113°07'5 0.6
2014-Sep-12 04:33N 22°03' E 113°05'5 4.9
2014-Sep-12 03:33N 21°58' E 113°07'5 5.1
2014-Sep-12 02:33N 21°54' E 113°11'3 2.6
2014-Sep-12 01:29N 21°52' E 113°12'35 2.3
2014-Sep-11 10:32N 22°02' E 113°48'0 0.1
2014-Sep-11 08:26N 22°01' E 113°48'0 0.0
2014-Sep-11 07:14N 22°01' E 113°48'0 0.0
2014-Sep-11 04:14N 22°01' E 113°48'0 0.0
2014-Sep-10 22:08N 22°01' E 113°48'0 0.0
2014-Sep-10 21:32N 22°01' E 113°48'0 0.0
2014-Sep-10 19:32N 22°01' E 113°48'0 0.0
2014-Sep-10 18:32N 22°01' E 113°48'0 0.1
2014-Sep-10 17:32N 22°01' E 113°48'0 0.1
2014-Sep-10 16:26N 22°01' E 113°48'0 0.0
2014-Sep-10 11:07N 22°01' E 113°48'0 0.0
2014-Sep-10 06:25N 22°01' E 113°48'0 0.0
2014-Sep-10 05:19N 22°01' E 113°48'0 0.0
2014-Sep-10 04:25N 22°01' E 113°48'0 0.0
2014-Sep-10 03:31N 22°01' E 113°48'4 3.7
2014-Sep-10 02:30N 22°05' E 113°49'4 3.1
2014-Sep-10 01:19N 22°09' E 113°48'0 0.0
2014-Sep-10 00:31N 22°09' E 113°48'0 0.0
2014-Sep-09 23:13N 22°09' E 113°48'0 0.0
2014-Sep-09 22:31N 22°09' E 113°48'0 0.0
2014-Sep-09 21:31N 22°09' E 113°48'0 0.0
2014-Sep-09 20:31N 22°09' E 113°48'0 0.0
2014-Sep-09 19:31N 22°09' E 113°48'0 0.0
2014-Sep-09 18:31N 22°09' E 113°48'0 0.0
2014-Sep-09 17:25N 22°09' E 113°48'2 2.6
2014-Sep-09 16:33N 22°11' E 113°47'9 8.6
2014-Sep-09 15:33N 22°19' E 113°48'  

Dump ship's entire track history